EKCH/CPH METAR and TAF weather

Enter ICAO airport designator
Station Type Date Time Source
EKCH METAR 2022/12/04 10:50 UTC NOAA

EKCH 041050Z 06013KT 9999 -DZ FEW007 OVC014 02/01 Q1027 TEMPO BKN015


Station Type Date Time Source
EKCH Decoded METAR 2022/12/04 10:50 UTC NOAA

Koebenhavn / Kastrup, Denmark (EKCH) 55-37N 012-39E 5M
Dec 04, 2022 - 05:50 AM EST / 2022.12.04 1050 UTC
Wind: from the ENE (060 degrees) at 15 MPH (13 KT):0
Visibility: greater than 7 mile(s):0
Sky conditions: overcast
Weather: light drizzle
Temperature: 35 F (2 C)
Windchill: 24 F (-4 C):1
Dew Point: 33 F (1 C)
Relative Humidity: 93%
Pressure (altimeter): 30.33 in. Hg (1027 hPa)
ob: EKCH 041050Z 06013KT 9999 -DZ FEW007 OVC014 02/01 Q1027 TEMPO BKN015
cycle: 11

Station Type Date Time Source
EKCH TAF 2022/12/04 06:31 UTC NOAA

TAF EKCH 040513Z 0406/0506 06015KT 9999 BKN015
TEMPO 0406/0408 4000 -RASN BKN012
TEMPO 0408/0421 BKN012
BECMG 0421/0424 BKN012
TEMPO 0500/0506 BKN008

Example: see airport list